createdAt,value
2019-04-11T00:00:41.775Z,42.10
2019-04-11T00:01:51.201Z,42.30
2019-04-11T00:02:51.124Z,42.10
2019-04-11T00:03:53.469Z,42.10
2019-04-11T00:04:54.734Z,42.30
2019-04-11T00:05:55.960Z,42.50
2019-04-11T00:06:58.064Z,42.60
2019-04-11T00:07:59.837Z,42.60
2019-04-11T00:09:01.237Z,42.70
2019-04-11T00:10:04.156Z,43.20
2019-04-11T00:11:05.941Z,42.50
2019-04-11T00:12:08.308Z,43.60
2019-04-11T00:13:18.923Z,42.50
2019-04-11T00:14:13.721Z,42.70
2019-04-11T00:15:15.887Z,43.00
2019-04-11T00:16:17.300Z,42.50
2019-04-11T00:17:19.533Z,42.70
2019-04-11T00:18:20.834Z,41.80
2019-04-11T00:19:23.125Z,42.30
2019-04-11T00:20:25.497Z,43.40
2019-04-11T00:21:27.243Z,43.20
2019-04-11T00:22:28.271Z,42.90
2019-04-11T00:23:30.236Z,42.80
2019-04-11T00:24:31.428Z,42.80
2019-04-11T00:25:33.669Z,42.50
2019-04-11T00:26:36.083Z,43.30
2019-04-11T00:27:37.307Z,43.00
2019-04-11T00:28:39.495Z,42.00
2019-04-11T00:29:41.159Z,42.10
2019-04-11T00:30:42.263Z,42.20
2019-04-11T00:31:43.287Z,42.70
2019-04-11T00:32:45.447Z,42.40
2019-04-11T00:33:46.804Z,41.80
2019-04-11T00:34:47.925Z,42.20
2019-04-11T00:35:50.118Z,42.30
2019-04-11T00:36:51.344Z,42.40
2019-04-11T00:37:53.645Z,42.90
2019-04-11T00:38:55.182Z,42.30
2019-04-11T00:39:56.340Z,42.80
2019-04-11T00:40:57.594Z,42.50
2019-04-11T00:41:58.779Z,42.50
2019-04-11T00:43:01.008Z,42.90
2019-04-11T00:44:03.208Z,42.30
2019-04-11T00:45:05.422Z,42.10
2019-04-11T00:46:07.793Z,42.30
2019-04-11T00:47:08.973Z,42.20
2019-04-11T00:48:11.230Z,42.00
2019-04-11T00:49:12.427Z,42.10
2019-04-11T00:50:14.777Z,42.40
2019-04-11T00:51:17.388Z,42.10
2019-04-11T00:52:18.853Z,42.20
2019-04-11T00:53:20.503Z,42.30
2019-04-11T00:54:22.653Z,42.30
2019-04-11T00:55:23.857Z,42.20
2019-04-11T00:56:24.939Z,42.10
2019-04-11T00:57:25.949Z,42.30
2019-04-11T00:58:27.758Z,42.50
2019-04-11T00:59:30.005Z,42.40
2019-04-11T01:00:31.293Z,42.80
2019-04-11T01:01:33.620Z,43.10
2019-04-11T01:02:35.698Z,43.90
2019-04-11T01:03:38.087Z,43.40
2019-04-11T01:04:39.223Z,42.90
2019-04-11T01:05:41.436Z,43.20
2019-04-11T01:06:42.648Z,43.50
2019-04-11T01:07:43.655Z,43.60
2019-04-11T01:08:44.656Z,43.80
2019-04-11T01:09:45.766Z,44.00
2019-04-11T01:10:47.710Z,43.70
2019-04-11T01:11:48.979Z,43.60
2019-04-11T01:12:51.192Z,43.80
2019-04-11T01:13:55.258Z,44.00
2019-04-11T01:14:55.351Z,43.90
2019-04-11T01:15:58.267Z,44.10
2019-04-11T01:16:59.279Z,44.00
2019-04-11T01:18:01.379Z,43.40
2019-04-11T01:19:02.700Z,44.40
2019-04-11T01:20:07.002Z,43.50
2019-04-11T01:21:08.407Z,44.00
2019-04-11T01:22:09.793Z,43.30
2019-04-11T01:23:11.059Z,43.40
2019-04-11T01:24:12.354Z,43.80
2019-04-11T01:25:14.667Z,44.00
2019-04-11T01:26:16.946Z,42.70
2019-04-11T01:27:18.229Z,43.20
2019-04-11T01:28:19.236Z,43.20
2019-04-11T01:29:20.232Z,43.20
2019-04-11T01:30:24.957Z,43.20
2019-04-11T01:31:29.259Z,43.20
2019-04-11T01:32:30.643Z,43.40
2019-04-11T01:33:31.810Z,43.40
2019-04-11T01:34:32.998Z,43.60
2019-04-11T01:35:34.285Z,43.60
2019-04-11T01:36:35.390Z,43.40
2019-04-11T01:37:37.205Z,44.00
2019-04-11T01:38:40.868Z,44.30
2019-04-11T01:40:01.351Z,44.10
2019-04-11T01:41:02.600Z,44.10
2019-04-11T01:42:03.726Z,43.90
2019-04-11T01:43:05.987Z,43.70
2019-04-11T01:44:08.422Z,43.60
2019-04-11T01:45:11.574Z,44.10
2019-04-11T01:46:12.640Z,44.10
2019-04-11T01:47:15.556Z,44.10
2019-04-11T01:48:19.484Z,44.40
2019-04-11T01:49:22.680Z,44.20
2019-04-11T01:50:25.580Z,44.10
2019-04-11T01:51:26.779Z,44.60
2019-04-11T01:52:28.554Z,44.10
2019-04-11T01:53:29.709Z,44.10
2019-04-11T01:54:30.719Z,44.40
2019-04-11T01:55:32.561Z,44.10
2019-04-11T01:56:33.743Z,44.00
2019-04-11T01:57:36.095Z,44.30
2019-04-11T01:58:38.453Z,44.80
2019-04-11T01:59:40.019Z,44.60
2019-04-11T02:00:43.903Z,44.20
2019-04-11T02:01:47.388Z,43.90
2019-04-11T02:02:50.716Z,44.00
2019-04-11T02:03:53.784Z,44.20
2019-04-11T02:05:00.650Z,44.20
2019-04-11T02:06:02.353Z,44.10
2019-04-11T02:07:04.584Z,44.70
2019-04-11T02:08:05.762Z,44.20
2019-04-11T02:09:11.629Z,44.80
2019-04-11T02:10:13.286Z,45.30
2019-04-11T02:11:15.076Z,45.30
2019-04-11T02:12:16.323Z,45.00
2019-04-11T02:13:17.551Z,44.70
2019-04-11T02:14:20.967Z,44.80
2019-04-11T02:15:22.189Z,44.70
2019-04-11T02:16:23.192Z,44.80
2019-04-11T02:17:24.367Z,44.70
2019-04-11T02:18:25.603Z,44.60
2019-04-11T02:19:26.629Z,44.80
2019-04-11T02:20:27.647Z,45.30
2019-04-11T02:21:29.566Z,45.20
2019-04-11T02:22:50.817Z,45.20
2019-04-11T02:24:09.884Z,45.20
2019-04-11T02:25:25.502Z,45.30
2019-04-11T02:26:31.478Z,45.30
2019-04-11T02:27:34.839Z,45.20
2019-04-11T02:28:36.981Z,45.20
2019-04-11T02:29:38.384Z,45.00
2019-04-11T02:30:43.509Z,44.70
2019-04-11T02:31:44.574Z,45.10
2019-04-11T02:32:47.874Z,45.10
2019-04-11T02:33:49.425Z,45.00
2019-04-11T02:34:54.671Z,45.10
2019-04-11T02:35:56.465Z,45.00
2019-04-11T02:36:58.639Z,45.00
2019-04-11T02:38:00.729Z,45.30
2019-04-11T02:39:09.838Z,45.30
2019-04-11T02:40:08.940Z,45.50
2019-04-11T02:41:11.968Z,45.30
2019-04-11T02:42:14.809Z,45.60
2019-04-11T02:43:17.695Z,45.10
2019-04-11T02:44:50.915Z,44.90
2019-04-11T02:45:37.007Z,45.00
2019-04-11T02:46:35.256Z,45.90
2019-04-11T02:47:32.621Z,45.50
2019-04-11T02:48:33.170Z,45.70
2019-04-11T02:49:35.258Z,45.50
2019-04-11T02:50:38.762Z,45.80
2019-04-11T02:51:40.202Z,46.20
2019-04-11T02:52:42.213Z,45.40
2019-04-11T02:53:45.089Z,45.80
2019-04-11T02:54:47.370Z,45.90
2019-04-11T02:55:49.709Z,45.50
2019-04-11T02:56:52.476Z,45.20
2019-04-11T02:57:54.393Z,45.20
2019-04-11T02:58:56.499Z,45.30
2019-04-11T02:59:57.821Z,45.50
2019-04-11T03:01:02.854Z,45.50
2019-04-11T03:02:04.519Z,45.30
2019-04-11T03:03:06.203Z,45.60
2019-04-11T03:04:08.477Z,45.40
2019-04-11T03:05:11.365Z,45.10
2019-04-11T03:06:12.789Z,45.50
2019-04-11T03:07:14.452Z,45.50
2019-04-11T03:08:19.798Z,45.60
2019-04-11T03:09:21.850Z,45.70
2019-04-11T03:10:22.924Z,45.70
2019-04-11T03:11:26.061Z,45.70
2019-04-11T03:12:29.579Z,45.70
2019-04-11T03:13:30.565Z,45.60
2019-04-11T03:14:46.128Z,45.40
2019-04-11T03:15:53.596Z,45.40
2019-04-11T03:16:49.198Z,45.20
2019-04-11T03:17:43.829Z,45.30
2019-04-11T03:18:59.437Z,45.40
2019-04-11T03:19:59.431Z,45.60
2019-04-11T03:20:56.866Z,45.50
2019-04-11T03:21:54.678Z,45.50
2019-04-11T03:23:01.446Z,45.80
2019-04-11T03:24:02.463Z,45.70
2019-04-11T03:25:06.045Z,45.90
2019-04-11T03:26:09.832Z,46.30
2019-04-11T03:27:12.043Z,46.10
2019-04-11T03:28:18.350Z,45.90
2019-04-11T03:29:17.644Z,45.70
2019-04-11T03:30:27.142Z,46.60
2019-04-11T03:35:30.999Z,46.80
2019-04-11T03:36:27.585Z,46.80
2019-04-11T03:37:17.276Z,46.90
2019-04-11T03:38:03.793Z,47.00
2019-04-11T03:39:08.950Z,47.40
2019-04-11T03:40:04.569Z,47.70
2019-04-11T03:41:12.232Z,47.70
2019-04-11T03:42:10.727Z,47.80
2019-04-11T03:43:10.754Z,47.80
2019-04-11T03:44:10.101Z,48.00
2019-04-11T03:45:29.034Z,48.10
2019-04-11T03:46:25.081Z,48.40
2019-04-11T03:47:23.730Z,48.20
2019-04-11T03:48:29.069Z,48.20
2019-04-11T03:49:27.886Z,48.50
2019-04-11T03:50:23.906Z,48.00
2019-04-11T03:51:25.604Z,48.40
2019-04-11T03:52:28.454Z,48.30
2019-04-11T03:53:32.004Z,48.80
2019-04-11T03:54:34.122Z,48.40
2019-04-11T03:55:36.901Z,48.70
2019-04-11T03:56:38.965Z,48.40
2019-04-11T03:57:41.679Z,49.10
2019-04-11T03:58:43.745Z,48.70
2019-04-11T03:59:45.840Z,48.80
2019-04-11T04:00:49.732Z,48.90
2019-04-11T04:01:50.790Z,49.10
2019-04-11T04:02:52.597Z,49.00
2019-04-11T04:03:55.594Z,49.10
2019-04-11T04:04:57.116Z,49.50
2019-04-11T04:06:00.023Z,49.50
2019-04-11T04:07:02.573Z,49.50
2019-04-11T04:08:04.602Z,49.80
2019-04-11T04:09:08.945Z,49.00
2019-04-11T04:10:13.244Z,49.30
2019-04-11T04:11:17.354Z,49.50
2019-04-11T04:12:20.827Z,49.40
2019-04-11T04:13:23.245Z,49.20
2019-04-11T04:14:28.492Z,49.40
2019-04-11T04:15:50.493Z,49.50
2019-04-11T04:16:56.741Z,49.20
2019-04-11T04:18:09.675Z,49.80
2019-04-11T04:19:16.303Z,49.70
2019-04-11T04:20:33.054Z,49.80
2019-04-11T04:21:42.875Z,49.80
2019-04-11T04:22:48.075Z,49.40
2019-04-11T04:23:49.794Z,49.30
2019-04-11T04:24:53.202Z,49.40
2019-04-11T04:25:56.273Z,49.30
2019-04-11T04:26:59.712Z,48.90
2019-04-11T04:28:00.931Z,48.90
2019-04-11T04:29:02.234Z,48.70
2019-04-11T04:30:06.196Z,48.70
2019-04-11T04:31:09.164Z,48.80
2019-04-11T04:32:11.931Z,48.80
2019-04-11T04:33:14.484Z,49.10
2019-04-11T04:34:15.670Z,48.90
2019-04-11T04:35:19.782Z,48.90
2019-04-11T04:36:20.176Z,49.20
2019-04-11T04:37:23.892Z,49.20
2019-04-11T04:38:24.767Z,49.10
2019-04-11T04:39:27.393Z,49.20
2019-04-11T04:40:47.831Z,49.20
2019-04-11T04:41:41.434Z,48.90
2019-04-11T04:42:44.480Z,49.10
2019-04-11T04:43:41.324Z,49.10
2019-04-11T04:44:45.184Z,49.20
2019-04-11T04:46:06.627Z,49.60
2019-04-11T04:47:00.275Z,49.80
2019-04-11T04:48:00.467Z,49.70
2019-04-11T04:48:56.011Z,49.10
2019-04-11T04:49:59.113Z,48.80
2019-04-11T04:51:06.231Z,49.00
2019-04-11T04:52:04.128Z,49.20
2019-04-11T04:53:07.352Z,49.00
2019-04-11T04:54:09.976Z,49.00
2019-04-11T04:55:12.791Z,48.90
2019-04-11T04:56:16.869Z,48.90
2019-04-11T04:57:18.239Z,48.90
2019-04-11T04:58:20.756Z,48.90
2019-04-11T04:59:23.675Z,48.90
2019-04-11T05:00:26.003Z,48.80
2019-04-11T05:01:29.003Z,48.80
2019-04-11T05:02:32.526Z,48.80
2019-04-11T05:03:34.313Z,48.80
2019-04-11T05:04:36.191Z,48.80
2019-04-11T05:05:38.272Z,48.80
2019-04-11T05:06:40.872Z,49.20
2019-04-11T05:07:44.813Z,48.90
2019-04-11T05:08:47.202Z,49.00
2019-04-11T05:09:50.129Z,49.10
2019-04-11T05:10:51.460Z,48.90
2019-04-11T05:11:53.112Z,48.80
2019-04-11T05:12:54.958Z,48.80
2019-04-11T05:13:56.624Z,48.90
2019-04-11T05:14:59.172Z,48.90
2019-04-11T05:16:08.501Z,48.80
2019-04-11T05:17:03.194Z,48.80
2019-04-11T05:18:04.312Z,48.80
2019-04-11T05:19:06.513Z,48.80
2019-04-11T05:20:09.168Z,48.90
2019-04-11T05:21:10.759Z,48.80
2019-04-11T05:22:12.620Z,48.80
2019-04-11T05:23:13.933Z,49.10
2019-04-11T05:24:15.115Z,49.30
2019-04-11T05:25:16.138Z,48.90
2019-04-11T05:26:17.335Z,49.00
2019-04-11T05:27:18.484Z,49.00
2019-04-11T05:28:19.498Z,49.00
2019-04-11T05:29:21.571Z,49.10
2019-04-11T05:30:23.153Z,48.80
2019-04-11T05:31:24.814Z,48.80
2019-04-11T05:32:27.290Z,48.80
2019-04-11T05:33:29.413Z,48.80
2019-04-11T05:34:30.525Z,48.80
2019-04-11T05:35:32.874Z,48.80
2019-04-11T05:36:34.501Z,48.80
2019-04-11T05:37:36.325Z,48.80
2019-04-11T05:38:38.503Z,48.80
2019-04-11T05:39:39.857Z,48.80
2019-04-11T05:40:42.196Z,48.80
2019-04-11T05:41:46.647Z,48.90
2019-04-11T05:42:51.271Z,48.80
2019-04-11T05:43:49.402Z,48.80
2019-04-11T05:44:51.497Z,48.80
2019-04-11T05:45:55.063Z,48.80
2019-04-11T05:47:00.360Z,48.80
2019-04-11T05:47:59.175Z,48.90
2019-04-11T05:49:11.341Z,48.70
2019-04-11T05:50:14.459Z,48.70
2019-04-11T05:51:19.589Z,48.60
2019-04-11T05:52:19.774Z,48.80
2019-04-11T05:53:21.416Z,48.70
2019-04-11T05:54:23.871Z,48.80
2019-04-11T05:55:26.160Z,48.40
2019-04-11T05:56:29.918Z,48.20
2019-04-11T05:57:35.543Z,48.40
2019-04-11T05:58:35.225Z,48.20
2019-04-11T05:59:37.120Z,47.80
2019-04-11T06:00:53.299Z,48.60
2019-04-11T06:02:02.661Z,48.30
2019-04-11T06:03:01.830Z,48.10
2019-04-11T06:04:15.361Z,48.20
2019-04-11T06:05:23.795Z,48.20
2019-04-11T06:06:35.227Z,47.80
2019-04-11T06:07:40.996Z,48.20
2019-04-11T06:08:40.169Z,48.00
2019-04-11T06:09:44.073Z,47.60
2019-04-11T06:10:48.396Z,47.80
2019-04-11T06:11:54.447Z,47.90
2019-04-11T06:13:02.559Z,47.80
2019-04-11T06:14:09.283Z,47.60
2019-04-11T06:15:13.491Z,47.40
2019-04-11T06:16:14.764Z,47.90
2019-04-11T06:17:18.390Z,47.60
2019-04-11T06:18:43.118Z,47.60
2019-04-11T06:19:46.051Z,47.70
2019-04-11T06:20:51.842Z,47.50
2019-04-11T06:22:00.363Z,47.40
2019-04-11T06:23:03.920Z,47.60
2019-04-11T06:24:14.223Z,47.50
2019-04-11T06:25:30.905Z,47.80
2019-04-11T06:26:34.523Z,47.80
2019-04-11T06:27:39.022Z,48.40
2019-04-11T06:28:40.519Z,48.00
2019-04-11T06:29:45.946Z,47.80
2019-04-11T06:30:48.866Z,47.40
2019-04-11T06:32:01.029Z,47.50
2019-04-11T06:33:20.509Z,47.40
2019-04-11T06:34:24.973Z,47.60
2019-04-11T06:35:30.504Z,47.70
2019-04-11T06:36:33.512Z,47.50
2019-04-11T06:37:45.710Z,47.60
2019-04-11T06:39:05.167Z,47.40
2019-04-11T06:40:26.442Z,47.10
2019-04-11T06:41:35.348Z,46.80
2019-04-11T06:42:41.043Z,47.30
2019-04-11T06:43:46.475Z,47.10
2019-04-11T06:45:06.440Z,46.80
2019-04-11T06:46:25.648Z,46.60
2019-04-11T06:47:31.087Z,47.10
2019-04-11T06:48:38.101Z,46.90
2019-04-11T06:49:50.924Z,46.50
2019-04-11T06:50:53.997Z,46.50
2019-04-11T06:52:11.309Z,46.30
2019-04-11T06:53:14.752Z,46.50
2019-04-11T06:54:34.308Z,46.60
2019-04-11T06:55:40.191Z,46.80
2019-04-11T06:56:43.413Z,46.10
2019-04-11T06:57:49.984Z,45.90
2019-04-11T06:58:56.749Z,46.20
2019-04-11T07:00:00.808Z,46.10
2019-04-11T07:01:04.047Z,46.10
2019-04-11T07:02:11.504Z,46.70
2019-04-11T07:03:19.606Z,46.10
2019-04-11T07:04:19.773Z,46.00
2019-04-11T07:05:22.599Z,46.30
2019-04-11T07:06:25.557Z,46.00
2019-04-11T07:07:29.481Z,45.90
2019-04-11T07:08:34.195Z,46.10
2019-04-11T07:09:41.375Z,45.70
2019-04-11T07:10:51.117Z,45.70
2019-04-11T07:11:54.130Z,46.00
2019-04-11T07:12:58.752Z,45.80
2019-04-11T07:14:01.965Z,45.60
2019-04-11T07:15:15.335Z,45.70
2019-04-11T07:16:18.440Z,45.50
2019-04-11T07:17:38.599Z,45.60
2019-04-11T07:19:00.624Z,45.30
2019-04-11T07:20:06.624Z,46.10
2019-04-11T07:21:10.602Z,45.80
2019-04-11T07:22:30.554Z,45.70
2019-04-11T07:23:51.428Z,46.20
2019-04-11T07:24:57.383Z,46.00
2019-04-11T07:26:16.904Z,45.40
2019-04-11T07:27:18.133Z,45.40
2019-04-11T07:28:27.361Z,46.00
2019-04-11T07:29:33.684Z,45.40
2019-04-11T07:30:53.847Z,45.30
2019-04-11T07:32:00.919Z,45.30
2019-04-11T07:33:20.540Z,45.30
2019-04-11T07:34:40.279Z,45.30
2019-04-11T07:35:47.649Z,45.40
2019-04-11T07:37:07.436Z,45.40
2019-04-11T07:38:11.798Z,45.40
2019-04-11T07:39:14.859Z,45.40
2019-04-11T07:40:31.457Z,45.70
2019-04-11T07:41:38.957Z,45.40
2019-04-11T07:42:45.028Z,45.50
2019-04-11T07:43:46.036Z,45.40
2019-04-11T07:44:58.048Z,45.40
2019-04-11T07:46:01.188Z,45.40
2019-04-11T07:47:22.198Z,45.40
2019-04-11T07:48:24.928Z,45.50
2019-04-11T07:49:40.909Z,44.60
2019-04-11T07:50:42.248Z,44.50
2019-04-11T07:51:45.317Z,44.60
2019-04-11T07:52:48.236Z,44.20
2019-04-11T07:53:50.376Z,44.20
2019-04-11T07:54:51.580Z,43.70
2019-04-11T07:55:53.425Z,44.40
2019-04-11T07:57:02.154Z,44.60
2019-04-11T07:58:11.681Z,44.20
2019-04-11T07:59:31.705Z,43.90
2019-04-11T08:00:44.093Z,44.00
2019-04-11T08:01:42.540Z,44.10
2019-04-11T08:02:51.200Z,44.30
2019-04-11T08:03:56.631Z,43.90
2019-04-11T08:05:16.282Z,44.00
2019-04-11T08:06:36.960Z,44.20
2019-04-11T08:07:57.350Z,43.40
2019-04-11T08:09:15.567Z,44.00
2019-04-11T08:10:33.565Z,42.90
2019-04-11T08:11:40.069Z,43.00
2019-04-11T08:12:41.454Z,42.40
2019-04-11T08:14:02.132Z,42.10
2019-04-11T08:15:15.820Z,42.80
2019-04-11T08:16:35.540Z,42.80
2019-04-11T08:17:42.380Z,42.40
2019-04-11T08:18:46.115Z,42.70
2019-04-11T08:20:05.425Z,42.50
2019-04-11T08:21:26.180Z,42.90
2019-04-11T08:22:45.363Z,42.90
2019-04-11T08:23:48.489Z,42.80
2019-04-11T08:24:57.190Z,42.70
2019-04-11T08:26:00.100Z,42.60
2019-04-11T08:27:19.827Z,42.10
2019-04-11T08:28:20.843Z,41.90
2019-04-11T08:29:24.296Z,42.10
2019-04-11T08:30:33.321Z,42.30
2019-04-11T08:31:54.858Z,42.10
2019-04-11T08:33:00.416Z,42.40
2019-04-11T08:34:02.665Z,42.40
2019-04-11T08:35:17.919Z,42.30
2019-04-11T08:36:21.931Z,42.20
2019-04-11T08:37:25.435Z,42.20
2019-04-11T08:38:28.785Z,42.30
2019-04-11T08:39:31.193Z,42.80
2019-04-11T08:40:34.280Z,42.40
2019-04-11T08:41:37.964Z,42.50
2019-04-11T08:42:43.908Z,42.80
2019-04-11T08:43:45.593Z,42.40
2019-04-11T08:44:46.702Z,42.10
2019-04-11T08:45:50.634Z,42.20
2019-04-11T08:46:53.957Z,41.50
2019-04-11T08:47:58.806Z,41.60
2019-04-11T08:49:03.527Z,41.80
2019-04-11T08:50:06.086Z,41.80
2019-04-11T08:51:09.693Z,41.80
2019-04-11T08:52:13.851Z,41.70
2019-04-11T08:53:16.845Z,42.00
2019-04-11T08:54:19.776Z,42.10
2019-04-11T08:55:23.153Z,42.20
2019-04-11T08:56:25.097Z,42.20
2019-04-11T08:57:31.822Z,41.50
2019-04-11T08:58:38.466Z,41.50
2019-04-11T08:59:44.240Z,42.00
2019-04-11T09:00:51.144Z,42.00
2019-04-11T09:01:52.275Z,42.10
2019-04-11T09:02:55.523Z,41.60
2019-04-11T09:04:15.742Z,41.30
2019-04-11T09:05:22.897Z,41.70
2019-04-11T09:06:28.622Z,41.40
2019-04-11T09:07:31.770Z,41.10
2019-04-11T09:08:51.811Z,41.50
2019-04-11T09:10:07.400Z,41.10
2019-04-11T09:11:13.264Z,41.70
2019-04-11T09:12:14.292Z,41.40
2019-04-11T09:13:17.427Z,40.90
2019-04-11T09:14:20.496Z,40.70
2019-04-11T09:15:41.158Z,40.80
2019-04-11T09:16:49.973Z,41.50
2019-04-11T09:17:58.924Z,40.90
2019-04-11T09:19:02.190Z,40.90
2019-04-11T09:20:16.109Z,41.00
2019-04-11T09:21:36.223Z,41.20
2019-04-11T09:22:39.475Z,41.20
2019-04-11T09:23:41.678Z,40.90
2019-04-11T09:24:46.378Z,41.20
2019-04-11T09:25:51.720Z,40.60
2019-04-11T09:26:54.367Z,40.70
2019-04-11T09:27:57.599Z,40.80
2019-04-11T09:28:59.554Z,40.80
2019-04-11T09:30:04.330Z,41.10
2019-04-11T09:31:13.235Z,40.50
2019-04-11T09:32:22.156Z,40.10
2019-04-11T09:33:41.658Z,40.60
2019-04-11T09:34:50.364Z,40.40
2019-04-11T09:36:09.661Z,40.10
2019-04-11T09:37:15.460Z,40.50
2019-04-11T09:38:18.166Z,40.40
2019-04-11T09:39:30.981Z,40.40
2019-04-11T09:40:50.364Z,40.80
2019-04-11T09:42:10.458Z,41.20
2019-04-11T09:43:15.672Z,40.20
2019-04-11T09:44:18.827Z,40.10
2019-04-11T09:45:25.651Z,40.30
2019-04-11T09:46:32.449Z,40.40
2019-04-11T09:47:52.231Z,40.20
2019-04-11T09:48:58.088Z,40.40
2019-04-11T09:50:04.334Z,40.20
2019-04-11T09:51:29.047Z,40.70
2019-04-11T09:52:31.081Z,40.20
2019-04-11T09:53:34.440Z,40.80
2019-04-11T09:54:40.154Z,40.10
2019-04-11T09:55:49.988Z,40.30
2019-04-11T09:57:10.042Z,41.10
2019-04-11T09:58:25.302Z,40.40
2019-04-11T09:59:47.691Z,40.70
2019-04-11T10:01:06.517Z,40.00
2019-04-11T10:02:27.435Z,40.00
2019-04-11T10:03:30.436Z,40.30
2019-04-11T10:04:33.914Z,40.80
2019-04-11T10:05:36.895Z,39.80
2019-04-11T10:06:46.592Z,40.00
2019-04-11T10:08:06.620Z,40.40
2019-04-11T10:09:08.044Z,40.40
2019-04-11T10:10:12.837Z,40.70
2019-04-11T10:11:15.992Z,40.10
2019-04-11T10:12:36.722Z,39.80
2019-04-11T10:13:57.586Z,40.60
2019-04-11T10:14:58.734Z,40.30
2019-04-11T10:16:11.609Z,40.40
2019-04-11T10:17:29.760Z,40.70
2019-04-11T10:18:40.555Z,40.60
2019-04-11T10:19:42.310Z,41.70
2019-04-11T10:20:44.620Z,40.30
2019-04-11T10:21:50.412Z,40.70
2019-04-11T10:23:03.321Z,40.40
2019-04-11T10:24:09.515Z,40.90
2019-04-11T10:25:19.112Z,40.80
2019-04-11T10:26:20.332Z,40.50
2019-04-11T10:27:40.556Z,40.10
2019-04-11T10:28:49.644Z,40.10
2019-04-11T10:30:09.214Z,40.20
2019-04-11T10:31:10.736Z,40.40
2019-04-11T10:32:14.868Z,40.40
2019-04-11T10:33:35.215Z,40.40
2019-04-11T10:34:50.319Z,40.20
2019-04-11T10:36:03.012Z,40.20
2019-04-11T10:37:05.745Z,40.90
2019-04-11T10:38:08.569Z,40.10
2019-04-11T10:39:24.980Z,40.10
2019-04-11T10:40:28.124Z,40.20
2019-04-11T10:41:40.091Z,40.10
2019-04-11T10:42:42.469Z,39.90
2019-04-11T10:43:44.608Z,40.70
2019-04-11T10:44:54.166Z,39.50
2019-04-11T10:45:57.249Z,40.10
2019-04-11T10:47:15.024Z,39.80
2019-04-11T10:48:17.883Z,39.80
2019-04-11T10:49:30.432Z,40.10
2019-04-11T10:50:48.674Z,40.70
2019-04-11T10:52:00.401Z,40.00
2019-04-11T10:53:02.666Z,39.50
2019-04-11T10:54:05.835Z,39.40
2019-04-11T10:55:09.897Z,39.40
2019-04-11T10:56:15.999Z,39.60
2019-04-11T10:57:20.944Z,39.50
2019-04-11T10:58:24.747Z,39.70
2019-04-11T10:59:28.023Z,39.80
2019-04-11T11:00:37.595Z,39.90
2019-04-11T11:01:50.624Z,39.70
2019-04-11T11:03:10.285Z,39.60
2019-04-11T11:04:13.782Z,39.50
2019-04-11T11:05:18.894Z,39.20
2019-04-11T11:06:21.911Z,40.80
2019-04-11T11:07:24.660Z,40.20
2019-04-11T11:08:33.440Z,39.30
2019-04-11T11:09:37.218Z,39.70
2019-04-11T11:10:39.717Z,39.30
2019-04-11T11:12:00.819Z,39.50
2019-04-11T11:13:03.879Z,39.80
2019-04-11T11:14:06.791Z,39.10
2019-04-11T11:15:16.179Z,38.60
2019-04-11T11:16:20.180Z,38.90
2019-04-11T11:18:00.966Z,38.90
2019-04-11T11:19:29.915Z,39.10
2019-04-11T11:20:22.266Z,39.10
2019-04-11T11:21:17.608Z,38.90
2019-04-11T11:22:38.643Z,39.10
2019-04-11T11:23:40.959Z,38.60
2019-04-11T11:25:00.749Z,38.40
2019-04-11T11:26:09.240Z,39.00
2019-04-11T11:27:10.425Z,38.50
2019-04-11T11:28:13.717Z,38.10
2019-04-11T11:29:32.056Z,38.60
2019-04-11T11:30:37.887Z,38.70
2019-04-11T11:31:41.006Z,39.00
2019-04-11T11:32:43.198Z,38.80
2019-04-11T11:33:44.995Z,38.20
2019-04-11T11:34:51.293Z,38.70
2019-04-11T11:36:01.049Z,39.20
2019-04-11T11:37:20.764Z,39.10
2019-04-11T11:38:24.092Z,39.10
2019-04-11T11:39:31.084Z,39.10
2019-04-11T11:40:45.963Z,39.20
2019-04-11T11:42:06.285Z,39.10
2019-04-11T11:43:12.024Z,39.20
2019-04-11T11:44:13.850Z,39.20
2019-04-11T11:45:25.670Z,39.20
2019-04-11T11:46:31.044Z,38.70
2019-04-11T11:47:45.963Z,37.90
2019-04-11T11:48:54.083Z,38.00
2019-04-11T11:50:00.532Z,38.50
2019-04-11T11:51:01.341Z,38.60
2019-04-11T11:52:04.336Z,38.50
2019-04-11T11:53:13.760Z,38.70
2019-04-11T11:54:21.817Z,38.10
2019-04-11T11:55:27.395Z,38.10
2019-04-11T11:56:29.713Z,38.70
2019-04-11T11:57:33.012Z,38.40
2019-04-11T11:58:48.785Z,38.00
2019-04-11T11:59:50.430Z,37.90
2019-04-11T12:00:55.554Z,38.00
2019-04-11T12:02:02.255Z,37.40
2019-04-11T12:03:05.367Z,37.90
2019-04-11T12:04:11.064Z,38.10
2019-04-11T12:05:16.345Z,38.20
2019-04-11T12:06:22.277Z,37.70
2019-04-11T12:07:25.071Z,37.50
2019-04-11T12:08:28.667Z,37.70
2019-04-11T12:09:40.419Z,37.70
2019-04-11T12:10:46.292Z,37.90
2019-04-11T12:11:51.519Z,37.50
2019-04-11T12:12:54.024Z,37.70
2019-04-11T12:14:13.757Z,37.70
2019-04-11T12:15:24.282Z,37.60
2019-04-11T12:16:27.982Z,37.40
2019-04-11T12:17:47.457Z,37.40
2019-04-11T12:18:56.266Z,37.50
2019-04-11T12:20:08.891Z,37.40
2019-04-11T12:21:06.844Z,37.40
2019-04-11T12:22:08.488Z,37.20
2019-04-11T12:23:15.095Z,37.30
2019-04-11T12:24:25.079Z,37.10
2019-04-11T12:25:31.446Z,37.30
2019-04-11T12:26:37.896Z,37.40
2019-04-11T12:27:54.087Z,37.40
2019-04-11T12:29:12.290Z,36.80
2019-04-11T12:30:15.709Z,37.50
2019-04-11T12:31:17.549Z,38.10
2019-04-11T12:32:24.252Z,37.60
2019-04-11T12:33:45.748Z,37.60
2019-04-11T12:34:51.565Z,38.00
2019-04-11T12:35:55.087Z,36.80
2019-04-11T12:36:58.389Z,36.60
2019-04-11T12:38:04.205Z,36.00
2019-04-11T12:39:25.422Z,36.60
2019-04-11T12:40:45.068Z,36.50
2019-04-11T12:41:53.764Z,36.20
2019-04-11T12:42:55.979Z,36.00
2019-04-11T12:43:58.896Z,36.70
2019-04-11T12:45:06.407Z,35.90
2019-04-11T12:46:30.151Z,36.40
2019-04-11T12:47:30.795Z,36.40
2019-04-11T12:48:33.699Z,36.70
2019-04-11T12:49:52.971Z,36.70
2019-04-11T12:50:56.086Z,36.50
2019-04-11T12:52:15.613Z,35.60
2019-04-11T12:53:16.733Z,36.20
2019-04-11T12:54:19.461Z,36.40
2019-04-11T12:55:25.242Z,36.20
2019-04-11T12:56:37.092Z,35.50
2019-04-11T12:57:40.012Z,36.00
2019-04-11T12:58:42.920Z,35.70
2019-04-11T12:59:44.833Z,35.80
2019-04-11T13:01:04.335Z,36.00
2019-04-11T13:02:24.071Z,35.80
2019-04-11T13:03:38.787Z,36.30
2019-04-11T13:04:39.789Z,35.60
2019-04-11T13:05:51.813Z,35.50
2019-04-11T13:06:54.827Z,35.50
2019-04-11T13:08:09.904Z,36.00
2019-04-11T13:09:15.576Z,35.80
2019-04-11T13:10:16.786Z,35.50
2019-04-11T13:11:19.705Z,35.40
2019-04-11T13:12:37.817Z,36.20
2019-04-11T13:13:43.524Z,35.50
2019-04-11T13:14:49.500Z,35.50
2019-04-11T13:15:58.739Z,35.50
2019-04-11T13:17:07.205Z,35.50
2019-04-11T13:18:19.176Z,35.50
2019-04-11T13:19:38.821Z,35.50
2019-04-11T13:20:47.704Z,35.40
2019-04-11T13:21:50.617Z,34.20
2019-04-11T13:22:56.361Z,34.60
2019-04-11T13:23:59.286Z,34.90
2019-04-11T13:25:07.744Z,35.40
2019-04-11T13:26:28.496Z,33.80
2019-04-11T13:27:31.415Z,34.40
2019-04-11T13:28:33.136Z,33.80
2019-04-11T13:29:42.080Z,33.20
2019-04-11T13:30:47.744Z,32.40
2019-04-11T13:31:53.428Z,33.10
2019-04-11T13:32:55.931Z,33.30
2019-04-11T13:33:58.858Z,33.20
2019-04-11T13:35:13.855Z,32.80
2019-04-11T13:36:22.531Z,32.20
2019-04-11T13:37:41.935Z,32.10
2019-04-11T13:38:42.952Z,32.20
2019-04-11T13:39:46.696Z,32.30
2019-04-11T13:40:49.771Z,33.50
2019-04-11T13:42:09.147Z,33.50
2019-04-11T13:43:17.932Z,32.50
2019-04-11T13:44:18.964Z,32.60
2019-04-11T13:45:19.977Z,32.10
2019-04-11T13:46:34.849Z,32.50
2019-04-11T13:47:40.267Z,31.80
2019-04-11T13:48:59.777Z,32.00
2019-04-11T13:50:03.866Z,32.00
2019-04-11T13:51:07.577Z,31.50
2019-04-11T13:52:25.826Z,31.20
2019-04-11T13:53:45.349Z,30.50
2019-04-11T13:54:48.268Z,31.00
2019-04-11T13:55:49.472Z,31.60
2019-04-11T13:57:09.015Z,32.00
2019-04-11T13:58:30.026Z,31.70
2019-04-11T13:59:35.842Z,32.30
2019-04-11T14:00:41.300Z,32.00
2019-04-11T14:02:02.628Z,32.00
2019-04-11T14:03:23.568Z,32.10
2019-04-11T14:04:26.489Z,32.40
2019-04-11T14:05:29.399Z,32.50
2019-04-11T14:06:30.439Z,32.50
2019-04-11T14:07:33.143Z,32.00
2019-04-11T14:08:38.824Z,32.10
2019-04-11T14:09:44.765Z,32.10
2019-04-11T14:11:04.596Z,32.10
2019-04-11T14:12:09.113Z,32.20
2019-04-11T14:13:10.117Z,32.20